createdAt,value
2023-02-26T00:01:04.331Z,57.80
2023-02-26T00:03:32.233Z,56.60
2023-02-26T00:06:01.474Z,57.80
2023-02-26T00:08:31.301Z,57.30
2023-02-26T00:11:01.844Z,56.60
2023-02-26T00:13:30.960Z,56.60
2023-02-26T00:16:01.833Z,57.60
2023-02-26T00:18:31.581Z,57.10
2023-02-26T00:20:59.855Z,57.20
2023-02-26T00:23:28.121Z,56.50
2023-02-26T00:25:56.120Z,56.90
2023-02-26T00:28:24.456Z,57.00
2023-02-26T00:30:52.867Z,57.40
2023-02-26T00:33:21.296Z,56.90
2023-02-26T00:35:57.107Z,56.50
2023-02-26T00:38:25.364Z,56.10
2023-02-26T00:40:55.572Z,56.00
2023-02-26T00:43:26.604Z,56.30
2023-02-26T00:46:03.080Z,57.90
2023-02-26T00:48:41.497Z,58.30
2023-02-26T00:51:17.473Z,57.50
2023-02-26T00:53:50.920Z,57.70
2023-02-26T00:56:19.103Z,57.80
2023-02-26T00:58:46.900Z,57.60
2023-02-26T01:01:14.738Z,57.70
2023-02-26T01:03:43.020Z,59.30
2023-02-26T01:06:16.388Z,59.80
2023-02-26T01:08:52.198Z,60.10
2023-02-26T01:11:20.432Z,61.20
2023-02-26T01:13:48.692Z,60.40
2023-02-26T01:16:21.677Z,60.50
2023-02-26T01:18:54.424Z,61.10
2023-02-26T01:21:30.205Z,59.70
2023-02-26T01:23:58.238Z,59.50
2023-02-26T01:26:29.164Z,60.50
2023-02-26T01:28:57.476Z,58.90
2023-02-26T01:31:36.366Z,58.90
2023-02-26T01:34:11.098Z,59.50
2023-02-26T01:36:44.765Z,59.80
2023-02-26T01:39:23.335Z,60.40
2023-02-26T01:41:53.249Z,60.30
2023-02-26T01:44:27.355Z,61.50
2023-02-26T01:47:18.512Z,61.80
2023-02-26T01:49:47.152Z,61.40
2023-02-26T01:52:48.327Z,61.30
2023-02-26T01:55:20.431Z,60.60
2023-02-26T01:57:48.718Z,61.40
2023-02-26T02:00:17.451Z,61.30
2023-02-26T02:02:45.792Z,62.00
2023-02-26T02:05:20.561Z,62.50
2023-02-26T02:07:48.596Z,62.70
2023-02-26T02:10:18.742Z,63.00
2023-02-26T02:12:52.164Z,63.80
2023-02-26T02:15:26.452Z,63.20
2023-02-26T02:18:03.821Z,63.10
2023-02-26T02:20:53.170Z,62.60
2023-02-26T02:23:25.632Z,62.60
2023-02-26T02:26:29.733Z,64.30
2023-02-26T02:29:14.258Z,66.40
2023-02-26T02:31:48.155Z,67.70
2023-02-26T02:34:21.478Z,67.50
2023-02-26T02:36:55.889Z,67.00
2023-02-26T02:39:27.512Z,67.00
2023-02-26T02:41:59.821Z,67.90
2023-02-26T02:44:29.765Z,67.60
2023-02-26T02:47:00.305Z,68.00
2023-02-26T02:49:33.358Z,67.80
2023-02-26T02:52:07.822Z,67.70
2023-02-26T02:54:41.815Z,67.90
2023-02-26T02:57:16.550Z,67.40
2023-02-26T02:59:47.192Z,65.50
2023-02-26T03:02:20.743Z,69.80
2023-02-26T03:04:49.627Z,70.50
2023-02-26T03:07:17.628Z,69.70
2023-02-26T03:09:45.748Z,69.90
2023-02-26T03:12:14.104Z,69.30
2023-02-26T03:14:43.529Z,69.30
2023-02-26T03:17:28.298Z,68.80
2023-02-26T03:20:09.990Z,68.00
2023-02-26T03:22:44.366Z,66.80
2023-02-26T03:25:24.886Z,66.80
2023-02-26T03:27:58.747Z,66.40
2023-02-26T03:30:31.301Z,68.30
2023-02-26T03:33:09.697Z,69.60
2023-02-26T03:35:46.108Z,68.80
2023-02-26T03:38:18.736Z,70.30
2023-02-26T03:40:51.742Z,70.80
2023-02-26T03:43:21.826Z,70.20
2023-02-26T03:45:53.246Z,70.20
2023-02-26T03:48:28.485Z,71.50
2023-02-26T03:51:00.859Z,71.20
2023-02-26T03:53:34.014Z,70.50
2023-02-26T03:56:07.284Z,70.50
2023-02-26T03:58:35.654Z,70.10
2023-02-26T04:01:08.862Z,70.50
2023-02-26T04:03:46.047Z,70.20
2023-02-26T04:06:14.689Z,70.10
2023-02-26T04:08:43.420Z,70.40
2023-02-26T04:11:14.148Z,70.20
2023-02-26T04:13:41.961Z,70.60
2023-02-26T04:16:09.850Z,69.10
2023-02-26T04:18:39.237Z,68.40
2023-02-26T04:21:07.717Z,68.50
2023-02-26T04:23:35.515Z,68.00
2023-02-26T04:26:03.329Z,66.40
2023-02-26T04:28:31.198Z,67.30
2023-02-26T04:30:59.080Z,66.90
2023-02-26T04:33:27.273Z,66.10
2023-02-26T04:35:56.438Z,65.90
2023-02-26T04:38:24.281Z,65.80
2023-02-26T04:40:52.367Z,65.70
2023-02-26T04:43:20.381Z,64.80
2023-02-26T04:45:48.709Z,65.50
2023-02-26T04:48:17.526Z,65.00
2023-02-26T04:50:46.461Z,65.60
2023-02-26T04:53:15.726Z,65.80
2023-02-26T04:55:43.704Z,64.30
2023-02-26T04:58:12.721Z,62.70
2023-02-26T05:00:40.670Z,63.30
2023-02-26T05:03:09.928Z,63.50
2023-02-26T05:05:37.824Z,62.80
2023-02-26T05:08:05.896Z,62.90
2023-02-26T05:10:35.120Z,61.80
2023-02-26T05:13:03.140Z,62.10
2023-02-26T05:15:30.993Z,61.70
2023-02-26T05:17:58.990Z,62.60
2023-02-26T05:20:26.854Z,62.90
2023-02-26T05:22:54.815Z,61.70
2023-02-26T05:25:22.659Z,61.10
2023-02-26T05:27:51.901Z,60.80
2023-02-26T05:30:20.006Z,62.30
2023-02-26T05:32:47.949Z,62.80
2023-02-26T05:35:16.214Z,62.70
2023-02-26T05:37:44.145Z,62.00
2023-02-26T05:40:13.142Z,62.60
2023-02-26T05:42:41.380Z,62.10
2023-02-26T05:45:11.114Z,61.30
2023-02-26T05:47:39.108Z,61.90
2023-02-26T05:50:07.988Z,62.20
2023-02-26T05:52:36.206Z,62.10
2023-02-26T05:55:04.775Z,62.30
2023-02-26T05:57:32.639Z,61.50
2023-02-26T06:00:00.516Z,61.70
2023-02-26T06:02:30.297Z,62.00
2023-02-26T06:04:58.135Z,63.00
2023-02-26T06:07:26.120Z,62.10
2023-02-26T06:09:54.005Z,62.50
2023-02-26T06:12:21.904Z,62.30
2023-02-26T06:14:49.731Z,63.00
2023-02-26T06:17:17.717Z,64.00
2023-02-26T06:19:46.960Z,62.20
2023-02-26T06:22:14.842Z,62.10
2023-02-26T06:24:42.700Z,62.40
2023-02-26T06:27:10.594Z,63.30
2023-02-26T06:29:39.234Z,63.20
2023-02-26T06:32:07.806Z,64.00
2023-02-26T06:34:35.853Z,63.30
2023-02-26T06:37:05.135Z,64.60
2023-02-26T06:39:33.211Z,64.00
2023-02-26T06:42:01.090Z,63.80
2023-02-26T06:44:29.068Z,63.60
2023-02-26T06:46:56.919Z,63.70
2023-02-26T06:49:24.767Z,64.10
2023-02-26T06:51:52.698Z,65.10
2023-02-26T06:54:21.945Z,64.20
2023-02-26T06:56:49.798Z,64.20
2023-02-26T06:59:17.677Z,63.00
2023-02-26T07:01:45.572Z,61.40
2023-02-26T07:04:13.468Z,62.80
2023-02-26T07:06:41.619Z,62.60
2023-02-26T07:09:09.718Z,63.90
2023-02-26T07:11:39.018Z,64.80
2023-02-26T07:14:07.038Z,65.00
2023-02-26T07:16:35.037Z,65.80
2023-02-26T07:19:02.965Z,64.60
2023-02-26T07:21:30.813Z,63.80
2023-02-26T07:23:58.732Z,62.40
2023-02-26T07:26:26.885Z,62.60
2023-02-26T07:28:56.350Z,62.30
2023-02-26T07:31:24.415Z,61.70
2023-02-26T07:33:52.458Z,63.10
2023-02-26T07:36:20.551Z,64.50
2023-02-26T07:38:48.446Z,62.70
2023-02-26T07:41:16.793Z,63.80
2023-02-26T07:43:44.664Z,63.10
2023-02-26T07:46:14.014Z,63.80
2023-02-26T07:48:41.960Z,64.10
2023-02-26T07:51:11.091Z,62.10
2023-02-26T07:53:39.015Z,60.10
2023-02-26T07:56:06.909Z,60.20
2023-02-26T07:58:35.200Z,59.00
2023-02-26T08:01:03.384Z,59.10
2023-02-26T08:03:33.214Z,61.50
2023-02-26T08:06:01.318Z,62.60
2023-02-26T08:08:29.526Z,60.80
2023-02-26T08:10:57.474Z,60.80
2023-02-26T08:13:25.395Z,59.50
2023-02-26T08:15:53.311Z,61.60
2023-02-26T08:18:21.588Z,61.60
2023-02-26T08:20:52.620Z,61.10
2023-02-26T08:23:20.588Z,58.20
2023-02-26T08:25:48.983Z,59.60
2023-02-26T08:28:16.906Z,62.30
2023-02-26T08:30:44.825Z,60.50
2023-02-26T08:33:12.825Z,60.10
2023-02-26T08:35:40.736Z,60.20
2023-02-26T08:38:10.000Z,59.30
2023-02-26T08:40:38.082Z,59.80
2023-02-26T08:43:05.968Z,60.40
2023-02-26T08:45:33.935Z,59.00
2023-02-26T08:48:01.848Z,58.50
2023-02-26T08:50:29.779Z,60.90
2023-02-26T08:52:57.974Z,58.80
2023-02-26T08:55:27.256Z,59.00
2023-02-26T08:57:55.147Z,57.90
2023-02-26T09:00:23.661Z,57.20
2023-02-26T09:02:51.726Z,57.40
2023-02-26T09:05:20.485Z,57.20
2023-02-26T09:07:48.329Z,56.50
2023-02-26T09:10:16.641Z,56.30
2023-02-26T09:12:46.722Z,53.10
2023-02-26T09:15:15.408Z,53.70
2023-02-26T09:17:43.894Z,51.10
2023-02-26T09:20:13.935Z,51.80
2023-02-26T09:22:42.192Z,53.10
2023-02-26T09:25:10.903Z,51.30
2023-02-26T09:27:38.783Z,51.90
2023-02-26T09:30:09.394Z,52.20
2023-02-26T09:32:38.006Z,52.00
2023-02-26T09:35:06.490Z,50.40
2023-02-26T09:37:34.707Z,50.70
2023-02-26T09:40:03.304Z,49.40
2023-02-26T09:42:50.912Z,51.60
2023-02-26T09:45:28.383Z,52.10
2023-02-26T09:47:56.923Z,49.20
2023-02-26T09:50:29.126Z,52.40
2023-02-26T09:53:03.866Z,50.20
2023-02-26T09:55:35.573Z,52.20
2023-02-26T09:58:05.914Z,51.00
2023-02-26T10:00:39.549Z,51.60
2023-02-26T10:03:22.779Z,53.50
2023-02-26T10:06:15.555Z,51.70
2023-02-26T10:08:52.191Z,52.00
2023-02-26T10:11:27.409Z,53.00
2023-02-26T10:14:03.526Z,53.70
2023-02-26T10:16:38.428Z,52.10
2023-02-26T10:19:12.464Z,51.90
2023-02-26T10:21:44.126Z,51.80
2023-02-26T10:24:19.282Z,49.40
2023-02-26T10:26:52.326Z,50.80
2023-02-26T10:29:25.350Z,52.10
2023-02-26T10:32:07.569Z,53.40
2023-02-26T10:34:40.260Z,54.60
2023-02-26T10:37:18.361Z,55.50
2023-02-26T10:39:51.127Z,51.80
2023-02-26T10:42:24.048Z,52.80
2023-02-26T10:45:01.385Z,52.50
2023-02-26T10:47:39.160Z,53.30
2023-02-26T10:50:11.299Z,53.40
2023-02-26T10:52:39.373Z,52.00
2023-02-26T10:55:33.045Z,50.30
2023-02-26T10:58:05.005Z,51.70
2023-02-26T11:00:35.283Z,46.90
2023-02-26T11:03:05.666Z,47.20
2023-02-26T11:05:35.400Z,48.20
2023-02-26T11:08:06.556Z,51.40
2023-02-26T11:10:43.296Z,49.90
2023-02-26T11:13:13.023Z,50.10
2023-02-26T11:15:41.479Z,49.20
2023-02-26T11:18:17.689Z,50.80
2023-02-26T11:20:47.689Z,48.00
2023-02-26T11:23:19.835Z,45.30
2023-02-26T11:25:53.218Z,44.30
2023-02-26T11:28:23.668Z,46.30
2023-02-26T11:30:54.396Z,46.00
2023-02-26T11:33:30.715Z,46.00
2023-02-26T11:36:02.308Z,46.10
2023-02-26T11:38:31.480Z,47.80
2023-02-26T11:41:02.028Z,48.10
2023-02-26T11:43:37.588Z,48.70
2023-02-26T11:46:07.135Z,48.90
2023-02-26T11:48:42.555Z,48.70
2023-02-26T11:51:16.370Z,48.50
2023-02-26T11:53:50.071Z,50.10
2023-02-26T11:56:25.937Z,48.70
2023-02-26T11:58:56.057Z,49.50
2023-02-26T12:01:28.876Z,48.00
2023-02-26T12:04:01.696Z,47.00
2023-02-26T12:06:29.872Z,45.60
2023-02-26T12:08:59.045Z,47.70
2023-02-26T12:11:46.310Z,50.50
2023-02-26T12:14:30.932Z,48.60
2023-02-26T12:17:09.681Z,47.70
2023-02-26T12:19:43.761Z,51.50
2023-02-26T12:22:28.148Z,46.20
2023-02-26T12:25:23.151Z,44.80
2023-02-26T12:28:22.398Z,46.60
2023-02-26T12:31:16.607Z,43.60
2023-02-26T12:33:56.015Z,47.00
2023-02-26T12:36:48.479Z,42.60
2023-02-26T12:39:33.433Z,45.20
2023-02-26T12:42:12.549Z,44.20
2023-02-26T12:45:05.843Z,46.40
2023-02-26T12:47:44.883Z,43.00
2023-02-26T12:50:41.543Z,39.90
2023-02-26T12:53:51.675Z,41.20
2023-02-26T12:56:46.002Z,39.50
2023-02-26T12:59:29.487Z,39.60
2023-02-26T13:02:18.244Z,40.00
2023-02-26T13:05:14.058Z,41.80
2023-02-26T13:07:58.127Z,40.00
2023-02-26T13:10:38.015Z,42.00
2023-02-26T13:13:19.740Z,41.60
2023-02-26T13:16:00.874Z,40.90
2023-02-26T13:18:38.243Z,43.90
2023-02-26T13:21:09.148Z,42.30
2023-02-26T13:23:43.649Z,42.40
2023-02-26T13:26:16.069Z,43.20
2023-02-26T13:28:48.465Z,43.00
2023-02-26T13:31:20.234Z,41.80
2023-02-26T13:33:50.552Z,43.30
2023-02-26T13:36:21.903Z,45.60
2023-02-26T13:39:04.867Z,43.90
2023-02-26T13:41:43.498Z,43.20
2023-02-26T13:44:21.666Z,43.60
2023-02-26T13:47:06.936Z,42.90
2023-02-26T13:49:43.419Z,39.50
2023-02-26T13:52:25.243Z,43.60
2023-02-26T13:54:53.210Z,38.20
2023-02-26T13:57:49.490Z,43.00
2023-02-26T14:00:28.791Z,40.80
2023-02-26T14:02:58.430Z,39.20
2023-02-26T14:06:01.214Z,41.80
2023-02-26T14:08:45.183Z,41.40
2023-02-26T14:11:43.794Z,37.90
2023-02-26T14:14:24.768Z,42.80
2023-02-26T14:16:56.671Z,41.20
2023-02-26T14:19:28.778Z,41.00
2023-02-26T14:21:59.010Z,41.10
2023-02-26T14:24:39.338Z,41.30
2023-02-26T14:27:25.721Z,42.30
2023-02-26T14:30:06.834Z,40.40
2023-02-26T14:32:36.526Z,42.20
2023-02-26T14:35:07.866Z,42.20
2023-02-26T14:37:38.199Z,42.00
2023-02-26T14:40:12.416Z,41.70
2023-02-26T14:42:48.391Z,39.20
2023-02-26T14:45:29.552Z,40.00
2023-02-26T14:47:58.636Z,41.10
2023-02-26T14:50:30.839Z,41.70
2023-02-26T14:53:25.170Z,41.70
2023-02-26T14:56:02.727Z,42.50
2023-02-26T14:58:50.260Z,40.30
2023-02-26T15:01:38.005Z,42.00
2023-02-26T15:04:27.452Z,40.80
2023-02-26T15:07:12.305Z,43.30
2023-02-26T15:09:55.538Z,40.10
2023-02-26T15:12:37.289Z,39.90
2023-02-26T15:15:28.499Z,40.90
2023-02-26T15:18:21.336Z,41.10
2023-02-26T15:20:58.106Z,40.50
2023-02-26T15:23:40.240Z,40.70
2023-02-26T15:26:15.325Z,42.30
2023-02-26T15:28:43.568Z,42.80
2023-02-26T15:31:13.912Z,42.80
2023-02-26T15:33:45.422Z,44.10
2023-02-26T15:36:18.779Z,43.70
2023-02-26T15:38:49.806Z,43.20
2023-02-26T15:41:18.877Z,42.90
2023-02-26T15:43:51.422Z,43.80
2023-02-26T15:46:21.797Z,43.20
2023-02-26T15:48:51.241Z,44.60
2023-02-26T15:51:20.977Z,43.30
2023-02-26T15:53:50.751Z,45.40
2023-02-26T15:56:24.403Z,43.40
2023-02-26T15:58:56.918Z,43.00
2023-02-26T16:01:27.075Z,42.90
2023-02-26T16:04:00.326Z,43.50
2023-02-26T16:06:31.149Z,41.20
2023-02-26T16:09:00.278Z,41.80
2023-02-26T16:11:34.079Z,42.40
2023-02-26T16:14:02.536Z,42.90
2023-02-26T16:16:40.684Z,44.40
2023-02-26T16:19:14.527Z,43.40
2023-02-26T16:21:43.319Z,41.20
2023-02-26T16:24:16.388Z,41.20
2023-02-26T16:26:48.354Z,44.00
2023-02-26T16:29:19.766Z,42.10
2023-02-26T16:31:52.693Z,44.50
2023-02-26T16:34:36.224Z,44.20
2023-02-26T16:37:26.040Z,42.70
2023-02-26T16:39:58.141Z,46.90
2023-02-26T16:42:38.407Z,44.10
2023-02-26T16:45:29.944Z,45.60
2023-02-26T16:47:59.600Z,44.00
2023-02-26T16:50:32.019Z,42.90
2023-02-26T16:53:02.635Z,43.20
2023-02-26T16:55:32.588Z,43.70
2023-02-26T16:58:02.880Z,45.80
2023-02-26T17:00:31.840Z,47.00
2023-02-26T17:03:05.344Z,44.20
2023-02-26T17:05:37.269Z,44.60
2023-02-26T17:08:10.338Z,46.80
2023-02-26T17:10:45.769Z,46.20
2023-02-26T17:13:18.805Z,47.70
2023-02-26T17:15:49.006Z,47.30
2023-02-26T17:18:17.562Z,47.50
2023-02-26T17:20:47.601Z,46.70
2023-02-26T17:23:18.254Z,46.20
2023-02-26T17:25:50.257Z,46.60
2023-02-26T17:28:23.646Z,48.10
2023-02-26T17:30:51.948Z,49.00
2023-02-26T17:33:20.752Z,49.30
2023-02-26T17:35:50.429Z,50.50
2023-02-26T17:38:18.442Z,49.90
2023-02-26T17:40:48.649Z,49.60
2023-02-26T17:43:16.748Z,49.60
2023-02-26T17:45:44.768Z,50.40
2023-02-26T17:48:14.262Z,51.40
2023-02-26T17:50:47.193Z,49.80
2023-02-26T17:53:17.554Z,50.40
2023-02-26T17:55:46.407Z,49.60
2023-02-26T17:58:22.519Z,50.70
2023-02-26T18:00:53.146Z,50.20
2023-02-26T18:03:21.528Z,51.20
2023-02-26T18:05:50.726Z,50.50
2023-02-26T18:08:23.225Z,51.10
2023-02-26T18:10:52.033Z,51.40
2023-02-26T18:13:20.034Z,51.00
2023-02-26T18:15:48.362Z,51.60
2023-02-26T18:18:16.974Z,52.20
2023-02-26T18:20:46.103Z,52.20
2023-02-26T18:23:14.125Z,52.60
2023-02-26T18:25:45.693Z,52.20
2023-02-26T18:28:19.113Z,52.70
2023-02-26T18:30:47.155Z,52.70
2023-02-26T18:33:17.018Z,54.00
2023-02-26T18:35:47.209Z,54.70
2023-02-26T18:38:16.415Z,53.00
2023-02-26T18:40:46.850Z,53.60
2023-02-26T18:43:15.082Z,53.10
2023-02-26T18:45:44.299Z,53.20
2023-02-26T18:48:15.736Z,52.00
2023-02-26T18:50:43.880Z,52.20
2023-02-26T18:53:12.322Z,52.40
2023-02-26T18:55:40.480Z,52.40
2023-02-26T18:58:09.758Z,52.70
2023-02-26T19:00:37.661Z,52.20
2023-02-26T19:03:05.542Z,52.50
2023-02-26T19:05:33.405Z,52.90
2023-02-26T19:08:01.363Z,52.20
2023-02-26T19:10:31.439Z,53.00
2023-02-26T19:12:59.588Z,52.20
2023-02-26T19:15:29.125Z,52.10
2023-02-26T19:17:57.243Z,52.30
2023-02-26T19:20:25.299Z,53.60
2023-02-26T19:22:53.178Z,54.10
2023-02-26T19:25:24.005Z,52.80
2023-02-26T19:27:53.438Z,53.80
2023-02-26T19:30:21.788Z,52.80
2023-02-26T19:32:51.779Z,53.70
2023-02-26T19:35:20.063Z,54.00
2023-02-26T19:37:48.107Z,54.10
2023-02-26T19:40:17.275Z,55.20
2023-02-26T19:42:45.542Z,55.10
2023-02-26T19:45:13.848Z,55.20
2023-02-26T19:47:42.286Z,55.00
2023-02-26T19:50:14.018Z,56.20
2023-02-26T19:52:42.484Z,56.50
2023-02-26T19:55:11.568Z,57.30
2023-02-26T19:57:39.437Z,57.00
2023-02-26T20:00:08.482Z,57.40
2023-02-26T20:02:36.480Z,58.00
2023-02-26T20:05:05.738Z,56.70
2023-02-26T20:07:36.217Z,56.40
2023-02-26T20:10:04.482Z,57.20
2023-02-26T20:12:32.344Z,57.20
2023-02-26T20:15:00.222Z,58.60
2023-02-26T20:17:28.158Z,58.00
2023-02-26T20:19:55.982Z,57.40
2023-02-26T20:22:24.576Z,58.50
2023-02-26T20:24:53.833Z,58.30
2023-02-26T20:27:22.054Z,58.90
2023-02-26T20:29:50.919Z,58.60
2023-02-26T20:32:19.185Z,58.00
2023-02-26T20:34:47.220Z,58.50
2023-02-26T20:37:15.182Z,59.00
2023-02-26T20:39:43.065Z,58.70
2023-02-26T20:42:12.319Z,58.90
2023-02-26T20:44:40.226Z,58.80
2023-02-26T20:47:08.115Z,59.50
2023-02-26T20:49:36.050Z,59.50
2023-02-26T20:52:04.315Z,59.00
2023-02-26T20:54:32.266Z,60.30
2023-02-26T20:57:00.154Z,60.40
2023-02-26T20:59:29.345Z,60.40
2023-02-26T21:01:57.511Z,60.20
2023-02-26T21:04:25.585Z,60.40
2023-02-26T21:06:53.449Z,58.90
2023-02-26T21:09:21.332Z,60.30
2023-02-26T21:11:52.415Z,58.60
2023-02-26T21:14:20.275Z,59.70
2023-02-26T21:16:49.484Z,59.20
2023-02-26T21:19:17.350Z,60.20
2023-02-26T21:21:45.245Z,60.20
2023-02-26T21:24:13.117Z,60.20
2023-02-26T21:26:41.060Z,61.00
2023-02-26T21:29:09.153Z,61.50
2023-02-26T21:31:37.723Z,61.70
2023-02-26T21:34:30.272Z,62.60
2023-02-26T21:36:55.023Z,63.00
2023-02-26T21:39:23.255Z,63.10
2023-02-26T21:41:51.172Z,62.90
2023-02-26T21:44:19.112Z,63.40
2023-02-26T21:46:46.978Z,63.40
2023-02-26T21:49:16.269Z,63.40
2023-02-26T21:51:44.172Z,63.00
2023-02-26T21:54:12.448Z,62.00
2023-02-26T21:56:40.640Z,60.90
2023-02-26T21:59:08.681Z,60.30
2023-02-26T22:01:36.778Z,60.80
2023-02-26T22:04:05.219Z,60.90
2023-02-26T22:06:34.806Z,61.10
2023-02-26T22:09:02.802Z,60.60
2023-02-26T22:11:30.846Z,60.90
2023-02-26T22:13:58.824Z,60.70
2023-02-26T22:16:27.512Z,60.50
2023-02-26T22:18:55.618Z,60.00
2023-02-26T22:21:24.784Z,59.50
2023-02-26T22:23:54.147Z,59.30
2023-02-26T22:26:22.309Z,58.00
2023-02-26T22:28:50.269Z,58.30
2023-02-26T22:31:18.237Z,59.40
2023-02-26T22:33:46.135Z,59.40
2023-02-26T22:36:14.014Z,59.90
2023-02-26T22:38:41.884Z,60.10
2023-02-26T22:41:11.087Z,60.20
2023-02-26T22:43:39.064Z,60.70
2023-02-26T22:46:07.593Z,59.90
2023-02-26T22:48:35.639Z,60.10
2023-02-26T22:51:03.479Z,60.40
2023-02-26T22:53:31.904Z,59.70
2023-02-26T22:55:59.796Z,58.30
2023-02-26T22:58:29.387Z,58.60
2023-02-26T23:01:01.595Z,59.20
2023-02-26T23:03:30.186Z,59.20
2023-02-26T23:05:58.516Z,58.80
2023-02-26T23:08:27.049Z,59.10
2023-02-26T23:10:56.057Z,59.00
2023-02-26T23:13:24.812Z,57.70
2023-02-26T23:15:54.328Z,58.30
2023-02-26T23:18:22.251Z,59.00
2023-02-26T23:20:50.871Z,59.00
2023-02-26T23:23:18.735Z,58.50
2023-02-26T23:25:47.168Z,58.40
2023-02-26T23:28:15.040Z,58.10
2023-02-26T23:30:42.992Z,58.40
2023-02-26T23:33:12.332Z,58.10
2023-02-26T23:35:40.489Z,58.20
2023-02-26T23:38:09.056Z,57.50
2023-02-26T23:40:36.960Z,57.30
2023-02-26T23:43:04.851Z,57.40
2023-02-26T23:45:32.824Z,57.90
2023-02-26T23:48:00.782Z,58.20
2023-02-26T23:50:29.981Z,58.60
2023-02-26T23:52:57.877Z,58.20
2023-02-26T23:55:25.796Z,58.00
2023-02-26T23:57:53.639Z,57.50
